createdAt,value
2023-03-25T00:01:34.975Z,12.57
2023-03-25T00:04:06.831Z,12.48
2023-03-25T00:06:35.256Z,12.33
2023-03-25T00:09:07.698Z,12.18
2023-03-25T00:11:37.913Z,12.05
2023-03-25T00:14:06.799Z,11.97
2023-03-25T00:16:41.696Z,11.94
2023-03-25T00:19:10.528Z,11.96
2023-03-25T00:21:40.114Z,11.99
2023-03-25T00:24:09.175Z,12.04
2023-03-25T00:26:42.733Z,12.08
2023-03-25T00:29:10.983Z,12.13
2023-03-25T00:31:42.109Z,12.19
2023-03-25T00:34:14.472Z,12.23
2023-03-25T00:36:49.141Z,12.23
2023-03-25T00:39:18.649Z,12.24
2023-03-25T00:41:48.478Z,12.25
2023-03-25T00:44:18.987Z,12.25
2023-03-25T00:46:47.903Z,12.23
2023-03-25T00:49:18.530Z,12.20
2023-03-25T00:51:52.439Z,12.20
2023-03-25T00:54:24.375Z,12.21
2023-03-25T00:56:53.189Z,12.22
2023-03-25T00:59:22.164Z,12.23
2023-03-25T01:01:53.588Z,12.25
2023-03-25T01:04:22.301Z,12.23
2023-03-25T01:14:29.326Z,12.35
2023-03-25T01:16:59.440Z,12.38
2023-03-25T01:19:29.458Z,12.32
2023-03-25T01:22:03.576Z,12.24
2023-03-25T01:24:32.398Z,12.20
2023-03-25T01:27:01.357Z,12.18
2023-03-25T01:29:30.920Z,12.17
2023-03-25T01:31:59.361Z,12.17
2023-03-25T01:34:27.919Z,12.15
2023-03-25T01:36:56.642Z,12.17
2023-03-25T01:39:25.914Z,12.20
2023-03-25T01:41:55.591Z,12.18
2023-03-25T01:44:24.457Z,12.16
2023-03-25T01:46:54.532Z,12.14
2023-03-25T01:49:39.250Z,12.10
2023-03-25T01:52:11.420Z,12.10
2023-03-25T01:54:40.357Z,12.13
2023-03-25T01:57:09.833Z,12.16
2023-03-25T01:59:38.334Z,12.17
2023-03-25T02:02:08.708Z,12.15
2023-03-25T02:04:42.842Z,12.13
2023-03-25T02:07:11.775Z,12.12
2023-03-25T02:09:41.067Z,12.09
2023-03-25T02:12:09.700Z,12.07
2023-03-25T02:14:39.383Z,12.02
2023-03-25T02:18:04.158Z,11.97
2023-03-25T02:20:44.168Z,11.92
2023-03-25T02:23:28.739Z,11.87
2023-03-25T02:26:36.702Z,11.80
2023-03-25T02:29:26.974Z,11.69
2023-03-25T02:32:18.902Z,11.61
2023-03-25T02:35:03.151Z,11.56
2023-03-25T02:37:58.624Z,11.49
2023-03-25T02:40:30.603Z,11.40
2023-03-25T02:43:06.109Z,11.34
2023-03-25T02:45:37.569Z,11.29
2023-03-25T02:48:09.934Z,11.28
2023-03-25T02:50:44.141Z,11.28
2023-03-25T02:53:16.282Z,11.24
2023-03-25T02:55:45.177Z,11.22
2023-03-25T02:58:14.404Z,11.21
2023-03-25T03:00:43.469Z,11.19
2023-03-25T03:03:13.781Z,11.17
2023-03-25T03:05:44.139Z,11.14
2023-03-25T03:08:24.867Z,11.12
2023-03-25T03:11:07.083Z,11.09
2023-03-25T03:13:55.527Z,11.06
2023-03-25T03:17:05.964Z,11.05
2023-03-25T03:19:52.700Z,11.01
2023-03-25T03:22:26.529Z,11.03
2023-03-25T03:25:16.293Z,11.04
2023-03-25T03:28:20.000Z,11.05
2023-03-25T03:31:00.668Z,11.04
2023-03-25T03:33:33.854Z,11.00
2023-03-25T03:36:07.493Z,10.99
2023-03-25T03:38:40.833Z,10.98
2023-03-25T03:41:11.309Z,10.96
2023-03-25T03:44:08.396Z,10.94
2023-03-25T03:46:55.560Z,10.91
2023-03-25T03:49:41.498Z,10.89
2023-03-25T03:52:22.451Z,10.86
2023-03-25T03:55:01.854Z,10.82
2023-03-25T03:57:34.805Z,10.82
2023-03-25T04:00:18.355Z,10.85
2023-03-25T04:02:52.504Z,11.54
2023-03-25T04:05:22.601Z,12.11
2023-03-25T04:08:04.577Z,12.11
2023-03-25T04:10:45.731Z,11.95
2023-03-25T04:13:15.280Z,11.71
2023-03-25T04:15:43.889Z,11.54
2023-03-25T04:18:13.381Z,11.37
2023-03-25T04:20:50.044Z,11.27
2023-03-25T04:23:21.604Z,11.19
2023-03-25T04:25:53.541Z,11.10
2023-03-25T04:28:28.005Z,11.06
2023-03-25T04:30:58.207Z,10.98
2023-03-25T04:33:26.649Z,10.92
2023-03-25T04:35:55.118Z,10.92
2023-03-25T04:38:24.156Z,11.50
2023-03-25T04:40:52.754Z,12.11
2023-03-25T04:43:23.999Z,12.24
2023-03-25T04:45:55.878Z,12.14
2023-03-25T04:48:30.179Z,11.96
2023-03-25T04:50:59.441Z,11.77
2023-03-25T04:53:31.277Z,11.58
2023-03-25T04:56:00.534Z,11.43
2023-03-25T04:58:29.112Z,11.30
2023-03-25T05:01:06.421Z,11.19
2023-03-25T05:03:40.185Z,11.77
2023-03-25T05:06:08.784Z,12.35
2023-03-25T05:08:38.217Z,12.46
2023-03-25T05:11:07.334Z,12.32
2023-03-25T05:13:37.815Z,12.12
2023-03-25T05:16:07.920Z,11.92
2023-03-25T05:18:36.506Z,11.73
2023-03-25T05:21:07.448Z,11.53
2023-03-25T05:23:36.066Z,11.37
2023-03-25T05:26:05.368Z,11.77
2023-03-25T05:28:38.723Z,12.20
2023-03-25T05:31:08.846Z,12.15
2023-03-25T05:33:45.402Z,12.02
2023-03-25T05:36:14.336Z,11.78
2023-03-25T05:38:43.607Z,11.47
2023-03-25T05:41:17.111Z,11.20
2023-03-25T05:43:51.213Z,11.47
2023-03-25T05:46:19.565Z,11.66
2023-03-25T05:48:48.379Z,11.54
2023-03-25T05:51:18.012Z,11.32
2023-03-25T05:53:55.792Z,11.11
2023-03-25T05:56:24.487Z,10.98
2023-03-25T05:58:54.946Z,11.55
2023-03-25T06:01:32.487Z,12.04
2023-03-25T06:04:10.600Z,12.06
2023-03-25T06:06:41.645Z,11.85
2023-03-25T06:09:12.072Z,11.59
2023-03-25T06:11:41.817Z,11.36
2023-03-25T06:14:10.676Z,11.22
2023-03-25T06:16:47.251Z,11.72
2023-03-25T06:19:18.793Z,12.16
2023-03-25T06:21:49.675Z,12.13
2023-03-25T06:24:18.024Z,11.93
2023-03-25T06:26:46.912Z,11.68
2023-03-25T06:29:15.524Z,11.45
2023-03-25T06:31:44.014Z,11.28
2023-03-25T06:34:12.516Z,11.69
2023-03-25T06:36:43.214Z,12.05
2023-03-25T06:39:12.176Z,11.99
2023-03-25T06:41:41.210Z,11.75
2023-03-25T06:44:14.104Z,11.46
2023-03-25T06:46:48.484Z,11.34
2023-03-25T06:49:32.626Z,11.77
2023-03-25T06:52:01.133Z,11.85
2023-03-25T06:54:29.791Z,11.78
2023-03-25T06:56:58.646Z,11.61
2023-03-25T06:59:32.281Z,11.48
2023-03-25T07:02:01.606Z,11.92
2023-03-25T07:04:30.683Z,12.34
2023-03-25T07:07:01.814Z,12.39
2023-03-25T07:09:31.066Z,12.12
2023-03-25T07:12:00.014Z,11.81
2023-03-25T07:14:30.640Z,11.60
2023-03-25T07:16:59.223Z,12.00
2023-03-25T07:19:32.024Z,12.23
2023-03-25T07:22:02.739Z,12.07
2023-03-25T07:24:31.820Z,12.03
2023-03-25T07:27:00.436Z,11.98
2023-03-25T07:29:30.028Z,12.45
2023-03-25T07:31:58.784Z,12.99
2023-03-25T07:34:27.331Z,13.13
2023-03-25T07:36:56.504Z,12.99
2023-03-25T07:39:25.743Z,12.78
2023-03-25T07:41:55.525Z,12.56
2023-03-25T07:44:36.305Z,12.45
2023-03-25T07:47:08.133Z,12.88
2023-03-25T07:49:41.220Z,13.07
2023-03-25T07:52:09.500Z,12.92
2023-03-25T07:54:38.599Z,12.55
2023-03-25T07:57:07.301Z,12.26
2023-03-25T07:59:38.357Z,12.25
2023-03-25T08:02:07.092Z,12.56
2023-03-25T08:04:35.593Z,12.63
2023-03-25T08:07:04.995Z,12.42
2023-03-25T08:09:33.984Z,12.11
2023-03-25T08:12:02.404Z,12.13
2023-03-25T08:14:31.766Z,12.47
2023-03-25T08:17:00.756Z,12.46
2023-03-25T08:19:37.219Z,12.36
2023-03-25T08:22:07.780Z,12.19
2023-03-25T08:24:36.439Z,12.65
2023-03-25T08:27:15.382Z,12.93
2023-03-25T08:29:54.605Z,12.86
2023-03-25T08:32:27.419Z,12.83
2023-03-25T08:34:55.776Z,12.89
2023-03-25T08:37:26.118Z,13.33
2023-03-25T08:39:56.295Z,13.71
2023-03-25T08:42:25.417Z,13.55
2023-03-25T08:44:53.976Z,13.35
2023-03-25T08:47:22.331Z,13.08
2023-03-25T08:49:54.729Z,13.26
2023-03-25T08:52:25.363Z,13.84
2023-03-25T08:54:53.646Z,13.94
2023-03-25T08:57:23.029Z,13.79
2023-03-25T08:59:53.268Z,13.61
2023-03-25T09:02:21.849Z,13.52
2023-03-25T09:04:52.028Z,13.48
2023-03-25T09:07:23.521Z,13.95
2023-03-25T09:09:52.003Z,14.34
2023-03-25T09:12:23.050Z,14.33
2023-03-25T09:14:51.837Z,14.17
2023-03-25T09:17:20.720Z,14.07
2023-03-25T09:19:58.809Z,13.97
2023-03-25T09:22:27.423Z,13.75
2023-03-25T09:24:58.457Z,14.20
2023-03-25T09:27:28.056Z,14.72
2023-03-25T09:29:56.782Z,14.83
2023-03-25T09:32:25.848Z,14.67
2023-03-25T09:34:54.868Z,14.40
2023-03-25T09:37:23.314Z,14.20
2023-03-25T09:39:52.724Z,14.00
2023-03-25T09:42:49.263Z,13.89
2023-03-25T09:45:23.472Z,14.25
2023-03-25T09:48:14.817Z,14.38
2023-03-25T09:50:43.577Z,14.22
2023-03-25T09:53:46.072Z,13.84
2023-03-25T09:56:18.215Z,13.57
2023-03-25T09:59:10.253Z,13.49
2023-03-25T10:01:54.848Z,14.09
2023-03-25T10:04:47.897Z,14.49
2023-03-25T10:07:38.058Z,14.37
2023-03-25T10:10:25.691Z,13.99
2023-03-25T10:13:03.189Z,13.57
2023-03-25T10:15:35.554Z,13.34
2023-03-25T10:18:12.676Z,13.74
2023-03-25T10:20:47.928Z,13.96
2023-03-25T10:23:24.864Z,13.93
2023-03-25T10:25:57.127Z,13.73
2023-03-25T10:28:33.342Z,13.59
2023-03-25T10:31:02.828Z,13.48
2023-03-25T10:33:36.044Z,13.83
2023-03-25T10:36:07.917Z,14.23
2023-03-25T10:38:37.354Z,14.24
2023-03-25T10:41:28.168Z,14.07
2023-03-25T10:43:57.149Z,13.64
2023-03-25T10:46:31.765Z,13.48
2023-03-25T10:49:01.181Z,13.85
2023-03-25T10:51:32.399Z,14.15
2023-03-25T10:54:01.241Z,14.21
2023-03-25T10:56:51.221Z,14.05
2023-03-25T10:59:29.954Z,13.89
2023-03-25T11:01:58.326Z,13.80
2023-03-25T11:04:34.046Z,14.32
2023-03-25T11:07:16.611Z,14.82
2023-03-25T11:09:47.803Z,14.56
2023-03-25T11:12:20.935Z,14.45
2023-03-25T11:14:57.153Z,14.26
2023-03-25T11:17:26.905Z,14.10
2023-03-25T11:19:57.287Z,13.94
2023-03-25T11:22:30.784Z,14.41
2023-03-25T11:25:04.756Z,14.79
2023-03-25T11:27:57.363Z,14.66
2023-03-25T11:30:26.759Z,14.42
2023-03-25T11:33:05.206Z,14.26
2023-03-25T11:35:43.601Z,14.07
2023-03-25T11:38:17.461Z,13.91
2023-03-25T11:40:56.648Z,14.40
2023-03-25T11:43:27.446Z,14.87
2023-03-25T11:45:55.865Z,14.90
2023-03-25T11:48:31.346Z,14.76
2023-03-25T11:51:02.002Z,14.55
2023-03-25T11:53:36.258Z,14.32
2023-03-25T11:56:11.287Z,14.18
2023-03-25T11:58:40.961Z,14.69
2023-03-25T12:01:29.520Z,15.24
2023-03-25T12:04:21.278Z,15.30
2023-03-25T12:06:55.564Z,15.10
2023-03-25T12:09:26.010Z,14.87
2023-03-25T12:11:58.664Z,14.59
2023-03-25T12:14:31.864Z,14.35
2023-03-25T12:17:32.707Z,14.74
2023-03-25T12:20:01.505Z,15.21
2023-03-25T12:22:30.481Z,15.13
2023-03-25T12:25:03.808Z,14.93
2023-03-25T12:27:53.435Z,14.68
2023-03-25T12:30:34.833Z,14.38
2023-03-25T12:33:16.583Z,14.21
2023-03-25T12:36:19.728Z,14.75
2023-03-25T12:38:58.990Z,15.20
2023-03-25T12:41:46.641Z,15.06
2023-03-25T12:44:26.950Z,14.79
2023-03-25T12:47:13.558Z,14.53
2023-03-25T12:49:52.325Z,14.27
2023-03-25T12:52:24.144Z,14.10
2023-03-25T12:55:04.984Z,14.58
2023-03-25T12:57:56.142Z,15.11
2023-03-25T13:00:42.063Z,15.14
2023-03-25T13:03:20.034Z,14.91
2023-03-25T13:06:11.635Z,14.59
2023-03-25T13:08:55.125Z,14.29
2023-03-25T13:11:35.820Z,14.09
2023-03-25T13:14:08.394Z,14.64
2023-03-25T13:16:36.718Z,14.97
2023-03-25T13:19:15.442Z,14.90
2023-03-25T13:21:46.636Z,14.69
2023-03-25T13:24:21.112Z,14.44
2023-03-25T13:26:50.414Z,14.20
2023-03-25T13:29:40.355Z,14.04
2023-03-25T13:32:15.433Z,14.55
2023-03-25T13:34:54.338Z,14.93
2023-03-25T13:37:29.664Z,14.88
2023-03-25T13:40:12.640Z,14.58
2023-03-25T13:42:43.921Z,14.23
2023-03-25T13:45:20.354Z,13.96
2023-03-25T13:48:11.909Z,13.75
2023-03-25T13:50:41.109Z,14.29
2023-03-25T13:53:19.183Z,14.70
2023-03-25T13:55:57.936Z,14.67
2023-03-25T13:58:57.367Z,14.47
2023-03-25T14:01:38.368Z,14.16
2023-03-25T14:04:14.578Z,13.89
2023-03-25T14:07:02.329Z,13.72
2023-03-25T14:09:44.248Z,14.27
2023-03-25T14:12:20.147Z,14.69
2023-03-25T14:14:52.331Z,14.63
2023-03-25T14:17:23.415Z,14.38
2023-03-25T14:20:41.312Z,14.03
2023-03-25T14:23:21.404Z,13.76
2023-03-25T14:25:59.470Z,14.24
2023-03-25T14:28:47.835Z,14.70
2023-03-25T14:31:23.606Z,14.56
2023-03-25T14:34:04.378Z,14.27
2023-03-25T14:36:42.446Z,13.91
2023-03-25T14:39:29.883Z,13.59
2023-03-25T14:42:02.466Z,13.33
2023-03-25T14:44:35.743Z,13.89
2023-03-25T14:47:17.640Z,14.30
2023-03-25T14:50:21.548Z,14.24
2023-03-25T14:53:01.479Z,13.99
2023-03-25T14:55:49.236Z,13.76
2023-03-25T14:58:28.364Z,13.58
2023-03-25T15:01:04.608Z,14.08
2023-03-25T15:03:44.616Z,14.41
2023-03-25T15:06:18.722Z,14.30
2023-03-25T15:08:55.665Z,14.03
2023-03-25T15:11:33.640Z,13.72
2023-03-25T15:14:05.667Z,13.51
2023-03-25T15:16:49.377Z,13.96
2023-03-25T15:19:18.988Z,14.44
2023-03-25T15:21:59.038Z,14.38
2023-03-25T15:24:32.056Z,14.15
2023-03-25T15:27:23.442Z,13.89
2023-03-25T15:30:27.598Z,13.62
2023-03-25T15:33:32.001Z,13.47
2023-03-25T15:36:36.462Z,14.21
2023-03-25T15:39:16.068Z,14.44
2023-03-25T15:42:00.618Z,14.19
2023-03-25T15:44:28.984Z,13.90
2023-03-25T15:47:19.085Z,13.59
2023-03-25T15:50:12.044Z,13.34
2023-03-25T15:52:54.268Z,13.95
2023-03-25T15:55:34.696Z,14.28
2023-03-25T15:58:06.882Z,14.13
2023-03-25T16:00:44.981Z,13.82
2023-03-25T16:03:16.568Z,13.48
2023-03-25T16:05:47.623Z,13.20
2023-03-25T16:08:41.269Z,13.56
2023-03-25T16:11:36.177Z,13.88
2023-03-25T16:14:15.104Z,13.73
2023-03-25T16:16:48.191Z,13.42
2023-03-25T16:19:30.571Z,13.09
2023-03-25T16:22:30.980Z,12.82
2023-03-25T16:25:02.250Z,13.32
2023-03-25T16:27:36.996Z,13.53
2023-03-25T16:30:39.987Z,13.37
2023-03-25T16:33:08.778Z,13.02
2023-03-25T16:36:01.737Z,12.71
2023-03-25T16:38:31.410Z,12.49
2023-03-25T16:41:04.824Z,13.02
2023-03-25T16:43:33.188Z,13.36
2023-03-25T16:46:02.929Z,13.24
2023-03-25T16:48:49.175Z,12.98
2023-03-25T16:51:23.188Z,12.69
2023-03-25T16:53:56.164Z,12.45
2023-03-25T16:56:31.661Z,12.82
2023-03-25T16:59:30.412Z,13.12
2023-03-25T17:01:59.869Z,12.99
2023-03-25T17:04:44.885Z,12.73
2023-03-25T17:07:20.898Z,12.39
2023-03-25T17:09:59.394Z,12.16
2023-03-25T17:12:28.145Z,12.68
2023-03-25T17:15:04.515Z,13.11
2023-03-25T17:17:47.430Z,13.04
2023-03-25T17:20:22.993Z,12.79
2023-03-25T17:23:08.494Z,12.44
2023-03-25T17:25:57.333Z,12.18
2023-03-25T17:28:58.381Z,12.72
2023-03-25T17:31:38.304Z,12.96
2023-03-25T17:34:15.548Z,12.71
2023-03-25T17:36:45.946Z,12.42
2023-03-25T17:39:20.967Z,12.15
2023-03-25T17:42:01.824Z,12.42
2023-03-25T17:44:38.911Z,12.58
2023-03-25T17:47:08.246Z,12.43
2023-03-25T17:49:37.408Z,12.19
2023-03-25T17:52:08.554Z,12.13
2023-03-25T17:54:39.201Z,12.53
2023-03-25T17:57:16.516Z,12.63
2023-03-25T17:59:45.665Z,12.30
2023-03-25T18:02:15.575Z,11.77
2023-03-25T18:04:44.198Z,11.67
2023-03-25T18:07:13.466Z,11.69
2023-03-25T18:09:42.693Z,11.46
2023-03-25T18:12:15.041Z,11.13
2023-03-25T18:14:45.157Z,10.85
2023-03-25T18:17:15.833Z,11.10
2023-03-25T18:19:47.662Z,11.25
2023-03-25T18:22:20.204Z,11.12
2023-03-25T18:32:26.049Z,11.31
2023-03-25T18:34:56.153Z,11.16
2023-03-25T18:37:24.636Z,10.97
2023-03-25T18:39:58.954Z,10.75
2023-03-25T18:42:28.045Z,10.98
2023-03-25T18:44:56.683Z,11.11
2023-03-25T18:47:25.248Z,10.90
2023-03-25T18:49:53.992Z,10.72
2023-03-25T18:52:23.096Z,10.57
2023-03-25T18:54:51.884Z,10.95
2023-03-25T18:57:24.149Z,11.14
2023-03-25T18:59:55.001Z,10.78
2023-03-25T19:02:24.992Z,10.67
2023-03-25T19:05:00.681Z,10.62
2023-03-25T19:15:10.854Z,10.25
2023-03-25T19:17:39.601Z,10.42
2023-03-25T19:20:18.811Z,10.52
2023-03-25T19:22:47.582Z,10.37
2023-03-25T19:25:18.957Z,10.15
2023-03-25T19:27:49.647Z,10.32
2023-03-25T19:30:20.903Z,10.48
2023-03-25T19:32:51.795Z,10.44
2023-03-25T19:35:21.227Z,10.21
2023-03-25T19:37:53.295Z,10.14
2023-03-25T19:40:26.583Z,10.32
2023-03-25T19:42:57.831Z,10.17
2023-03-25T19:45:26.758Z,10.13
2023-03-25T19:47:56.850Z,9.88
2023-03-25T19:50:27.881Z,10.03
2023-03-25T19:53:03.702Z,10.19
2023-03-25T19:55:34.949Z,9.96
2023-03-25T19:58:03.777Z,9.80
2023-03-25T20:00:36.959Z,9.73
2023-03-25T20:03:08.093Z,9.98
2023-03-25T20:05:36.900Z,9.96
2023-03-25T20:08:06.803Z,9.77
2023-03-25T20:10:38.065Z,9.54
2023-03-25T20:13:06.337Z,9.97
2023-03-25T20:15:36.865Z,9.92
2023-03-25T20:18:06.893Z,9.98
2023-03-25T20:20:36.395Z,9.78
2023-03-25T20:23:06.197Z,9.81
2023-03-25T20:33:12.132Z,9.67
2023-03-25T20:35:44.115Z,9.81
2023-03-25T20:38:14.470Z,9.81
2023-03-25T20:40:45.183Z,9.93
2023-03-25T20:43:15.101Z,9.64
2023-03-25T20:45:43.604Z,9.73
2023-03-25T20:48:12.535Z,10.00
2023-03-25T20:50:41.400Z,10.02
2023-03-25T20:53:10.597Z,9.75
2023-03-25T20:55:39.282Z,9.46
2023-03-25T20:58:08.996Z,9.72
2023-03-25T21:00:39.303Z,9.88
2023-03-25T21:03:08.169Z,9.72
2023-03-25T21:05:42.421Z,9.60
2023-03-25T21:08:12.144Z,9.47
2023-03-25T21:10:40.712Z,9.86
2023-03-25T21:13:11.248Z,9.94
2023-03-25T21:15:41.270Z,9.74
2023-03-25T21:18:10.615Z,9.42
2023-03-25T21:20:48.979Z,9.50
2023-03-25T21:23:17.279Z,9.91
2023-03-25T21:25:46.962Z,9.82
2023-03-25T21:28:16.666Z,9.70
2023-03-25T21:30:46.583Z,9.67
2023-03-25T21:33:19.483Z,9.90
2023-03-25T21:35:53.979Z,9.95
2023-03-25T21:38:28.855Z,9.77
2023-03-25T21:40:59.653Z,9.42
2023-03-25T21:43:28.040Z,9.60
2023-03-25T21:45:57.588Z,9.83
2023-03-25T21:48:38.456Z,9.74
2023-03-25T21:51:10.249Z,9.59
2023-03-25T21:53:45.256Z,9.50
2023-03-25T21:56:18.189Z,9.80
2023-03-25T21:58:47.900Z,9.97
2023-03-25T22:01:23.360Z,9.86
2023-03-25T22:03:55.464Z,9.60
2023-03-25T22:06:26.371Z,9.40
2023-03-25T22:08:57.278Z,9.74
2023-03-25T22:11:29.825Z,9.99
2023-03-25T22:13:58.542Z,9.81
2023-03-25T22:16:28.471Z,9.51
2023-03-25T22:18:56.976Z,9.31
2023-03-25T22:21:30.454Z,9.63
2023-03-25T22:24:02.437Z,9.89
2023-03-25T22:26:32.505Z,9.60
2023-03-25T22:29:08.005Z,9.43
2023-03-25T22:31:39.897Z,9.40
2023-03-25T22:34:13.226Z,9.66
2023-03-25T22:36:46.319Z,9.62
2023-03-25T22:39:15.298Z,9.45
2023-03-25T22:49:26.078Z,9.81
2023-03-25T22:51:55.808Z,9.55
2023-03-25T22:54:24.559Z,9.40
2023-03-25T22:56:53.120Z,9.67
2023-03-25T22:59:21.637Z,9.78
2023-03-25T23:01:54.897Z,9.58
2023-03-25T23:04:23.375Z,9.44
2023-03-25T23:07:04.773Z,9.31
2023-03-25T23:09:42.723Z,9.75
2023-03-25T23:12:16.183Z,9.88
2023-03-25T23:14:49.335Z,9.66
2023-03-25T23:17:18.437Z,9.40
2023-03-25T23:19:47.339Z,9.29
2023-03-25T23:22:17.350Z,9.57
2023-03-25T23:24:46.021Z,9.80
2023-03-25T23:27:14.730Z,9.69
2023-03-25T23:29:45.255Z,9.49
2023-03-25T23:32:14.902Z,9.31
2023-03-25T23:34:43.747Z,9.70
2023-03-25T23:37:12.523Z,9.96
2023-03-25T23:39:42.185Z,9.83
2023-03-25T23:42:10.517Z,9.62
2023-03-25T23:44:39.009Z,9.37
2023-03-25T23:47:07.682Z,9.51
2023-03-25T23:49:38.666Z,9.78
2023-03-25T23:52:11.720Z,9.76
2023-03-25T23:54:41.906Z,9.50
2023-03-25T23:57:10.751Z,9.21
2023-03-25T23:59:40.952Z,9.32
